This is the latest recevied weather packets stored in our database for station/object R2AKT-13. If no packets are shown the sender has not sent any weather packets the latest 10 day(s).
| Time | Temp. | Humidity | Pressure | Rain* | Wind** | Luminosity | Snow |
|---|---|---|---|---|---|---|---|
| 1788067936 | 15° C | 61% | 997.8 hPa | - | 0.89 m/s, 185° | - | - |
| 1788067351 | 14.44° C | 65% | 997.9 hPa | - | 0.45 m/s, 137° | - | - |
| 1788066861 | 13.89° C | 66% | 997.9 hPa | - | 1.79 m/s, 176° | - | - |
| 1788066286 | 13.89° C | 65% | 997.9 hPa | - | 2.24 m/s, 179° | - | - |
| 1788065697 | 13.89° C | 67% | 998 hPa | - | 0.45 m/s, 191° | - | - |
| 1788065196 | 13.33° C | 69% | 998 hPa | - | 0.45 m/s, 239° | - | - |
| 1788064716 | 13.33° C | 67% | 998 hPa | - | 1.79 m/s, 168° | - | - |
| 1788064171 | 12.78° C | 69% | 998 hPa | - | 0.89 m/s, 170° | - | - |
| 1788063646 | 12.78° C | 70% | 998 hPa | - | 1.34 m/s, 180° | - | - |
| 1788063136 | 12.22° C | 70% | 998 hPa | - | 1.34 m/s, 170° | - | - |
| 1788062561 | 12.22° C | 72% | 998.1 hPa | - | 0.89 m/s, 170° | - | - |
| 1788061986 | 12.22° C | 72% | 998.1 hPa | - | 1.34 m/s, 171° | - | - |
| 1788061416 | 12.22° C | 74% | 998.1 hPa | - | 0.89 m/s, 168° | - | - |
| 1788060851 | 11.67° C | 75% | 998.2 hPa | - | 0.89 m/s, 176° | - | - |
| 1788060301 | 11.67° C | 75% | 998.1 hPa | - | 0.89 m/s, 183° | - | - |
| 1788059756 | 11.67° C | 75% | 998.1 hPa | - | 0.45 m/s, 161° | - | - |
| 1788059171 | 12.22° C | 74% | 998.1 hPa | - | 0.89 m/s, 162° | - | - |
| 1788058581 | 12.22° C | 74% | 998.1 hPa | - | 1.34 m/s, 161° | - | - |
| 1788058066 | 12.22° C | 74% | 998.2 hPa | - | 1.34 m/s, 164° | - | - |
| 1788057576 | 12.22° C | 75% | 998.2 hPa | - | 1.34 m/s, 173° | - | - |
| 1788057011 | 12.78° C | 73% | 998.2 hPa | - | 1.34 m/s, 164° | - | - |
| 1788056481 | 12.78° C | 73% | 998.2 hPa | - | 1.34 m/s, 168° | - | - |
| 1788055886 | 12.78° C | 72% | 998.2 hPa | - | 1.79 m/s, 175° | - | - |
| 1788055301 | 13.33° C | 72% | 998.1 hPa | - | 1.79 m/s, 166° | - | - |
| 1788054726 | 13.33° C | 71% | 998.1 hPa | - | 2.24 m/s, 175° | - | - |
* Rain since midnight (hover to see other rain measurements)
** Current wind speed in m/s (hover to see current wind gust speed)